createdAt,value
2023-04-18T00:00:43.061Z,81.69
2023-04-18T00:03:28.675Z,81.65
2023-04-18T00:06:13.974Z,82.31
2023-04-18T00:08:59.149Z,82.64
2023-04-18T00:11:44.620Z,82.96
2023-04-18T00:14:30.153Z,83.22
2023-04-18T00:17:15.913Z,83.47
2023-04-18T00:20:01.482Z,83.98
2023-04-18T00:22:46.798Z,83.90
2023-04-18T00:25:32.200Z,84.60
2023-04-18T00:28:17.803Z,85.54
2023-04-18T00:31:03.384Z,85.81
2023-04-18T00:33:50.699Z,86.26
2023-04-18T00:36:35.690Z,86.69
2023-04-18T00:39:21.214Z,86.04
2023-04-18T00:42:06.478Z,85.94
2023-04-18T00:44:51.917Z,85.46
2023-04-18T00:47:37.526Z,86.30
2023-04-18T00:50:23.617Z,86.12
2023-04-18T00:53:10.121Z,86.26
2023-04-18T00:55:55.681Z,86.25
2023-04-18T00:58:41.065Z,86.16
2023-04-18T01:01:26.414Z,86.38
2023-04-18T01:04:11.788Z,87.17
2023-04-18T01:06:59.431Z,87.37
2023-04-18T01:09:47.801Z,86.98
2023-04-18T01:12:33.176Z,87.34
2023-04-18T01:15:18.581Z,87.51
2023-04-18T01:18:04.098Z,87.90
2023-04-18T01:20:53.838Z,86.92
2023-04-18T01:23:38.999Z,87.88
2023-04-18T01:26:24.430Z,87.46
2023-04-18T01:29:09.908Z,87.98
2023-04-18T01:31:55.361Z,87.85
2023-04-18T01:34:41.039Z,89.11
2023-04-18T01:37:26.351Z,88.93
2023-04-18T01:40:13.049Z,88.14
2023-04-18T01:42:58.438Z,88.96
2023-04-18T01:45:43.878Z,87.63
2023-04-18T01:48:29.188Z,87.90
2023-04-18T01:51:14.285Z,87.42
2023-04-18T01:53:59.399Z,88.35
2023-04-18T01:56:44.518Z,87.61
2023-04-18T01:59:29.754Z,88.61
2023-04-18T02:02:15.372Z,89.44
2023-04-18T02:05:00.461Z,89.18
2023-04-18T02:07:45.844Z,88.45
2023-04-18T02:10:30.967Z,88.56
2023-04-18T02:13:16.313Z,89.04
2023-04-18T02:16:01.829Z,88.87
2023-04-18T02:18:47.347Z,88.92
2023-04-18T02:21:32.806Z,89.25
2023-04-18T02:24:18.492Z,89.62
2023-04-18T02:27:03.970Z,90.24
2023-04-18T02:29:49.163Z,90.46
2023-04-18T02:32:34.661Z,90.81
2023-04-18T02:35:21.151Z,90.85
2023-04-18T02:38:06.722Z,89.75
2023-04-18T02:40:51.976Z,89.80
2023-04-18T02:43:38.963Z,89.41
2023-04-18T02:46:25.052Z,90.26
2023-04-18T02:49:10.851Z,89.55
2023-04-18T02:51:56.247Z,89.49
2023-04-18T02:54:44.540Z,90.06
2023-04-18T02:57:34.756Z,90.76
2023-04-18T03:00:37.667Z,89.81
2023-04-18T03:03:40.279Z,90.05
2023-04-18T03:06:42.180Z,88.66
2023-04-18T03:09:27.587Z,88.93
2023-04-18T03:12:17.381Z,89.49
2023-04-18T03:15:02.679Z,88.74
2023-04-18T03:17:48.790Z,89.00
2023-04-18T03:20:34.812Z,89.52
2023-04-18T03:23:20.291Z,89.58
2023-04-18T03:26:06.962Z,90.29
2023-04-18T03:28:54.381Z,91.59
2023-04-18T03:31:40.000Z,91.87
2023-04-18T03:34:25.241Z,91.88
2023-04-18T03:37:12.380Z,92.82
2023-04-18T03:40:03.918Z,92.97
2023-04-18T03:42:49.641Z,94.89
2023-04-18T03:45:35.339Z,94.90
2023-04-18T03:48:20.613Z,94.56
2023-04-18T03:51:06.611Z,95.92
2023-04-18T03:53:52.355Z,97.10
2023-04-18T03:56:37.943Z,96.56
2023-04-18T03:59:23.300Z,97.10
2023-04-18T04:02:09.624Z,96.92
2023-04-18T04:04:55.227Z,98.45
2023-04-18T04:07:40.937Z,98.31
2023-04-18T04:10:26.708Z,98.17
2023-04-18T04:13:13.018Z,98.64
2023-04-18T04:16:00.155Z,99.24
2023-04-18T04:18:45.858Z,100.00
2023-04-18T04:21:32.562Z,99.43
2023-04-18T04:24:18.687Z,100.00
2023-04-18T04:27:06.074Z,99.38
2023-04-18T04:29:54.115Z,98.02
2023-04-18T04:32:39.538Z,98.66
2023-04-18T04:35:25.019Z,99.42
2023-04-18T04:38:10.435Z,100.00
2023-04-18T04:41:02.559Z,100.00
2023-04-18T04:43:49.646Z,100.00
2023-04-18T04:46:37.702Z,100.00
2023-04-18T04:49:26.041Z,100.00
2023-04-18T04:52:11.285Z,99.94
2023-04-18T04:54:56.954Z,100.00
2023-04-18T04:57:43.320Z,100.00
2023-04-18T05:00:43.460Z,100.00
2023-04-18T05:03:28.753Z,100.00
2023-04-18T05:06:15.633Z,100.00
2023-04-18T05:09:01.284Z,100.00
2023-04-18T05:11:47.461Z,100.00
2023-04-18T05:14:32.991Z,100.00
2023-04-18T05:17:18.228Z,100.00
2023-04-18T05:20:03.800Z,100.00
2023-04-18T05:22:49.422Z,100.00
2023-04-18T05:25:35.430Z,100.00
2023-04-18T05:28:25.350Z,100.00
2023-04-18T05:31:10.721Z,100.00
2023-04-18T05:33:55.799Z,100.00
2023-04-18T05:36:40.959Z,100.00
2023-04-18T05:39:26.489Z,100.00
2023-04-18T05:42:11.862Z,100.00
2023-04-18T05:44:57.263Z,100.00
2023-04-18T05:47:42.484Z,100.00
2023-04-18T05:50:28.009Z,100.00
2023-04-18T05:53:13.132Z,100.00
2023-04-18T05:55:58.497Z,100.00
2023-04-18T05:58:43.655Z,99.42
2023-04-18T06:01:29.158Z,100.00
2023-04-18T06:04:14.897Z,100.00
2023-04-18T06:07:00.747Z,100.00
2023-04-18T06:09:46.303Z,99.64
2023-04-18T06:12:32.013Z,100.00
2023-04-18T06:15:17.465Z,100.00
2023-04-18T06:18:03.149Z,100.00
2023-04-18T06:20:48.752Z,100.00
2023-04-18T06:23:34.218Z,100.00
2023-04-18T06:26:19.250Z,100.00
2023-04-18T06:29:04.584Z,99.91
2023-04-18T06:31:49.851Z,99.77
2023-04-18T06:34:35.057Z,99.39
2023-04-18T06:37:21.038Z,100.00
2023-04-18T06:40:06.875Z,100.00
2023-04-18T06:42:52.352Z,100.00
2023-04-18T06:45:39.059Z,100.00
2023-04-18T06:48:24.615Z,100.00
2023-04-18T06:51:09.883Z,100.00
2023-04-18T06:53:55.166Z,100.00
2023-04-18T06:56:40.641Z,100.00
2023-04-18T06:59:26.760Z,100.00
2023-04-18T07:02:12.019Z,100.00
2023-04-18T07:04:57.728Z,100.00
2023-04-18T07:07:43.493Z,100.00
2023-04-18T07:10:30.207Z,100.00
2023-04-18T07:13:15.570Z,100.00
2023-04-18T07:16:00.733Z,100.00
2023-04-18T07:18:46.398Z,100.00
2023-04-18T07:21:31.623Z,100.00
2023-04-18T07:24:17.057Z,100.00
2023-04-18T07:27:02.751Z,100.00
2023-04-18T07:29:47.902Z,100.00
2023-04-18T07:32:33.485Z,100.00
2023-04-18T07:35:18.930Z,100.00
2023-04-18T07:38:04.214Z,100.00
2023-04-18T07:40:57.035Z,100.00
2023-04-18T07:43:42.204Z,100.00
2023-04-18T07:46:27.911Z,100.00
2023-04-18T07:49:13.746Z,100.00
2023-04-18T07:51:59.414Z,100.00
2023-04-18T07:54:44.751Z,100.00
2023-04-18T07:57:30.164Z,100.00
2023-04-18T08:00:17.119Z,100.00
2023-04-18T08:03:02.879Z,100.00
2023-04-18T08:05:48.352Z,100.00
2023-04-18T08:08:34.466Z,100.00
2023-04-18T08:11:19.725Z,100.00
2023-04-18T08:14:04.890Z,100.00
2023-04-18T08:16:50.209Z,100.00
2023-04-18T08:19:37.384Z,100.00
2023-04-18T08:22:22.541Z,100.00
2023-04-18T08:25:08.564Z,100.00
2023-04-18T08:27:53.652Z,100.00
2023-04-18T08:30:38.785Z,100.00
2023-04-18T08:33:24.554Z,100.00
2023-04-18T08:36:10.204Z,100.00
2023-04-18T08:38:55.574Z,99.85
2023-04-18T08:41:42.762Z,100.00
2023-04-18T08:44:28.606Z,100.00
2023-04-18T08:47:14.781Z,100.00
2023-04-18T08:50:01.033Z,100.00
2023-04-18T08:52:46.906Z,100.00
2023-04-18T08:55:32.139Z,100.00
2023-04-18T08:58:20.827Z,100.00
2023-04-18T09:01:06.278Z,99.95
2023-04-18T09:03:51.531Z,100.00
2023-04-18T09:06:51.579Z,100.00
2023-04-18T09:09:44.793Z,100.00
2023-04-18T09:12:30.322Z,100.00
2023-04-18T09:15:18.251Z,99.78
2023-04-18T09:18:09.530Z,99.34
2023-04-18T09:20:55.038Z,98.43
2023-04-18T09:23:40.551Z,96.81
2023-04-18T09:26:35.106Z,95.59
2023-04-18T09:29:21.664Z,96.40
2023-04-18T09:32:07.530Z,94.13
2023-04-18T09:34:58.288Z,94.51
2023-04-18T09:37:50.210Z,94.66
2023-04-18T09:40:35.725Z,94.42
2023-04-18T09:43:21.321Z,93.10
2023-04-18T09:46:07.977Z,94.57
2023-04-18T09:48:53.234Z,90.67
2023-04-18T09:51:41.222Z,91.16
2023-04-18T09:54:32.314Z,91.58
2023-04-18T09:57:18.362Z,91.32
2023-04-18T10:00:13.986Z,90.42
2023-04-18T10:03:05.747Z,91.41
2023-04-18T10:05:53.105Z,89.95
2023-04-18T10:08:39.741Z,89.23
2023-04-18T10:11:25.704Z,89.73
2023-04-18T10:14:14.530Z,88.14
2023-04-18T10:17:00.772Z,88.16
2023-04-18T10:19:46.197Z,86.27
2023-04-18T10:22:33.161Z,85.70
2023-04-18T10:25:40.383Z,84.60
2023-04-18T10:28:25.980Z,84.59
2023-04-18T10:31:11.596Z,85.00
2023-04-18T10:37:05.624Z,86.31
2023-04-18T10:39:57.595Z,84.89
2023-04-18T10:42:52.406Z,84.73
2023-04-18T10:45:37.764Z,83.85
2023-04-18T10:48:27.596Z,83.52
2023-04-18T10:51:17.719Z,83.46
2023-04-18T10:54:05.179Z,84.28
2023-04-18T10:56:57.608Z,84.85
2023-04-18T10:59:47.911Z,85.77
2023-04-18T11:02:33.565Z,83.31
2023-04-18T11:05:21.050Z,83.59
2023-04-18T11:08:22.739Z,84.10
2023-04-18T11:11:08.144Z,82.70
2023-04-18T11:13:58.041Z,81.96
2023-04-18T11:16:43.441Z,81.68
2023-04-18T11:19:28.876Z,81.12
2023-04-18T11:22:14.957Z,81.53
2023-04-18T11:25:01.058Z,81.13
2023-04-18T11:27:48.703Z,81.45
2023-04-18T11:30:41.368Z,81.18
2023-04-18T11:33:28.307Z,80.79
2023-04-18T11:36:13.843Z,80.96
2023-04-18T11:38:58.871Z,81.35
2023-04-18T11:41:44.663Z,81.08
2023-04-18T11:44:30.040Z,81.69
2023-04-18T11:47:30.155Z,82.12
2023-04-18T11:50:15.670Z,81.82
2023-04-18T11:53:01.175Z,79.92
2023-04-18T11:55:58.562Z,80.69
2023-04-18T11:58:44.707Z,79.70
2023-04-18T12:01:30.597Z,79.34
2023-04-18T12:04:16.738Z,79.12
2023-04-18T12:07:02.764Z,79.22
2023-04-18T12:09:54.255Z,78.24
2023-04-18T12:12:48.293Z,77.28
2023-04-18T12:15:39.750Z,77.71
2023-04-18T12:18:26.052Z,77.87
2023-04-18T12:21:13.383Z,78.14
2023-04-18T12:24:01.111Z,79.14
2023-04-18T12:26:48.912Z,77.92
2023-04-18T12:29:37.371Z,77.16
2023-04-18T12:32:24.163Z,75.45
2023-04-18T12:35:10.514Z,78.37
2023-04-18T12:38:02.025Z,76.83
2023-04-18T12:40:50.750Z,76.41
2023-04-18T12:43:38.170Z,75.28
2023-04-18T12:46:23.638Z,75.66
2023-04-18T12:49:09.453Z,76.09
2023-04-18T12:51:54.921Z,76.05
2023-04-18T12:54:41.266Z,76.43
2023-04-18T12:57:27.046Z,77.35
2023-04-18T13:00:14.525Z,77.33
2023-04-18T13:03:04.030Z,76.89
2023-04-18T13:05:49.709Z,76.31
2023-04-18T13:08:35.034Z,75.67
2023-04-18T13:11:21.033Z,75.49
2023-04-18T13:14:06.446Z,77.32
2023-04-18T13:16:52.218Z,77.11
2023-04-18T13:19:38.094Z,77.32
2023-04-18T13:22:23.329Z,76.06
2023-04-18T13:25:10.076Z,75.82
2023-04-18T13:27:55.560Z,76.60
2023-04-18T13:30:41.172Z,76.12
2023-04-18T13:33:26.915Z,76.62
2023-04-18T13:36:12.375Z,75.60
2023-04-18T13:38:58.518Z,76.34
2023-04-18T13:41:43.587Z,75.87
2023-04-18T13:44:29.705Z,75.64
2023-04-18T13:47:15.138Z,75.43
2023-04-18T13:50:00.351Z,76.02
2023-04-18T13:52:45.446Z,77.43
2023-04-18T13:55:30.770Z,76.05
2023-04-18T13:58:16.483Z,77.08
2023-04-18T14:01:02.368Z,78.11
2023-04-18T14:03:47.880Z,76.08
2023-04-18T14:06:33.567Z,74.18
2023-04-18T14:09:20.386Z,75.28
2023-04-18T14:12:05.744Z,76.11
2023-04-18T14:14:51.272Z,73.96
2023-04-18T14:17:37.125Z,75.30
2023-04-18T14:20:22.683Z,74.31
2023-04-18T14:23:08.139Z,74.70
2023-04-18T14:25:53.344Z,76.17
2023-04-18T14:28:38.657Z,77.14
2023-04-18T14:31:25.520Z,76.88
2023-04-18T14:34:10.675Z,75.38
2023-04-18T14:36:58.475Z,75.34
2023-04-18T14:39:43.691Z,74.85
2023-04-18T14:42:29.218Z,75.00
2023-04-18T14:45:15.115Z,75.50
2023-04-18T14:48:01.383Z,74.31
2023-04-18T14:50:46.931Z,75.88
2023-04-18T14:53:32.354Z,76.09
2023-04-18T14:56:18.100Z,74.62
2023-04-18T14:59:03.323Z,75.85
2023-04-18T15:01:48.603Z,74.11
2023-04-18T15:04:34.047Z,74.44
2023-04-18T15:07:19.447Z,74.24
2023-04-18T15:10:05.412Z,74.44
2023-04-18T15:12:50.951Z,74.08
2023-04-18T15:15:36.079Z,74.85
2023-04-18T15:18:21.583Z,76.08
2023-04-18T15:21:06.852Z,77.03
2023-04-18T15:23:52.121Z,76.31
2023-04-18T15:26:37.350Z,75.27
2023-04-18T15:29:22.554Z,75.88
2023-04-18T15:32:07.968Z,75.77
2023-04-18T15:34:53.345Z,75.06
2023-04-18T15:37:38.725Z,76.50
2023-04-18T15:40:24.241Z,76.25
2023-04-18T15:43:09.814Z,77.80
2023-04-18T15:45:55.056Z,76.26
2023-04-18T15:48:40.160Z,75.88
2023-04-18T15:51:28.898Z,75.28
2023-04-18T15:54:14.591Z,75.14
2023-04-18T15:57:00.270Z,76.19
2023-04-18T15:59:45.439Z,75.77
2023-04-18T16:02:30.616Z,75.32
2023-04-18T16:05:16.316Z,74.84
2023-04-18T16:08:02.091Z,76.56
2023-04-18T16:10:47.766Z,75.21
2023-04-18T16:13:33.570Z,74.00
2023-04-18T16:16:18.807Z,75.09
2023-04-18T16:19:04.473Z,75.35
2023-04-18T16:21:50.049Z,75.83
2023-04-18T16:24:35.591Z,76.71
2023-04-18T16:27:21.064Z,76.69
2023-04-18T16:30:07.129Z,75.61
2023-04-18T16:32:52.851Z,76.05
2023-04-18T16:35:38.293Z,76.42
2023-04-18T16:38:23.551Z,77.38
2023-04-18T16:41:09.021Z,78.78
2023-04-18T16:43:54.407Z,78.63
2023-04-18T16:46:39.656Z,79.77
2023-04-18T16:49:25.086Z,80.10
2023-04-18T16:52:10.243Z,81.08
2023-04-18T16:54:55.595Z,81.75
2023-04-18T16:57:42.158Z,83.06
2023-04-18T17:00:27.662Z,81.99
2023-04-18T17:03:13.068Z,82.84
2023-04-18T17:05:58.524Z,82.94
2023-04-18T17:08:43.976Z,82.55
2023-04-18T17:11:29.105Z,82.36
2023-04-18T17:14:15.556Z,82.90
2023-04-18T17:17:01.205Z,82.39
2023-04-18T17:19:47.163Z,82.73
2023-04-18T17:22:32.882Z,82.86
2023-04-18T17:25:18.476Z,84.57
2023-04-18T17:28:04.135Z,85.66
2023-04-18T17:30:49.718Z,85.87
2023-04-18T17:33:35.218Z,86.70
2023-04-18T17:36:20.974Z,85.91
2023-04-18T17:39:06.573Z,86.49
2023-04-18T17:41:52.739Z,87.44
2023-04-18T17:44:37.748Z,88.96
2023-04-18T17:47:23.318Z,88.27
2023-04-18T17:50:08.977Z,88.14
2023-04-18T17:52:54.486Z,89.26
2023-04-18T17:55:40.494Z,90.57
2023-04-18T17:58:26.688Z,91.83
2023-04-18T18:01:19.404Z,93.13
2023-04-18T18:04:04.961Z,93.29
2023-04-18T18:06:57.246Z,94.32
2023-04-18T18:09:42.922Z,94.53
2023-04-18T18:12:28.255Z,96.56
2023-04-18T18:15:14.435Z,97.99
2023-04-18T18:18:00.052Z,98.31
2023-04-18T18:20:47.687Z,98.61
2023-04-18T18:23:32.954Z,98.51
2023-04-18T18:26:18.329Z,99.38
2023-04-18T18:29:03.768Z,99.12
2023-04-18T18:31:49.423Z,98.20
2023-04-18T18:34:34.522Z,98.01
2023-04-18T18:37:20.108Z,97.70
2023-04-18T18:40:06.011Z,96.53
2023-04-18T18:42:51.653Z,96.60
2023-04-18T18:45:38.470Z,95.93
2023-04-18T18:48:24.303Z,96.12
2023-04-18T18:51:10.039Z,96.34
2023-04-18T18:53:55.096Z,96.53
2023-04-18T18:56:40.291Z,96.93
2023-04-18T18:59:25.922Z,96.04
2023-04-18T19:02:11.178Z,95.42
2023-04-18T19:04:56.638Z,95.14
2023-04-18T19:07:42.450Z,96.30
2023-04-18T19:10:27.925Z,96.45
2023-04-18T19:13:13.192Z,97.20
2023-04-18T19:15:58.800Z,97.43
2023-04-18T19:18:44.077Z,97.64
2023-04-18T19:21:29.654Z,96.86
2023-04-18T19:24:14.944Z,96.79
2023-04-18T19:27:00.656Z,96.14
2023-04-18T19:29:45.925Z,96.05
2023-04-18T19:32:31.381Z,96.20
2023-04-18T19:35:16.603Z,95.45
2023-04-18T19:38:02.773Z,95.80
2023-04-18T19:40:48.282Z,95.18
2023-04-18T19:43:34.605Z,95.37
2023-04-18T19:46:20.191Z,95.37
2023-04-18T19:49:05.862Z,96.07
2023-04-18T19:51:51.706Z,95.14
2023-04-18T19:54:37.300Z,95.54
2023-04-18T19:57:22.845Z,94.67
2023-04-18T20:00:09.950Z,95.98
2023-04-18T20:02:58.415Z,96.93
2023-04-18T20:05:43.711Z,97.28
2023-04-18T20:08:28.901Z,96.56
2023-04-18T20:11:14.488Z,95.77
2023-04-18T20:13:59.790Z,96.24
2023-04-18T20:16:45.200Z,96.48
2023-04-18T20:19:30.188Z,97.45
2023-04-18T20:22:16.437Z,98.30
2023-04-18T20:25:01.911Z,99.01
2023-04-18T20:27:47.478Z,99.31
2023-04-18T20:30:32.997Z,99.71
2023-04-18T20:33:18.136Z,99.65
2023-04-18T20:36:04.619Z,99.76
2023-04-18T20:38:49.773Z,99.89
2023-04-18T20:41:35.243Z,99.01
2023-04-18T20:44:20.805Z,98.16
2023-04-18T20:47:06.627Z,98.68
2023-04-18T20:49:51.891Z,98.37
2023-04-18T20:52:37.349Z,98.28
2023-04-18T20:55:23.009Z,98.59
2023-04-18T20:58:08.544Z,99.77
2023-04-18T21:00:54.088Z,100.00
2023-04-18T21:03:39.484Z,100.00
2023-04-18T21:06:25.093Z,100.00
2023-04-18T21:09:10.256Z,100.00
2023-04-18T21:11:55.357Z,100.00
2023-04-18T21:14:40.545Z,99.45
2023-04-18T21:17:25.997Z,99.91
2023-04-18T21:20:11.456Z,99.40
2023-04-18T21:22:56.816Z,99.28
2023-04-18T21:25:42.232Z,99.33
2023-04-18T21:28:27.928Z,98.92
2023-04-18T21:31:13.535Z,99.29
2023-04-18T21:34:03.430Z,98.17
2023-04-18T21:36:48.742Z,98.11
2023-04-18T21:39:33.985Z,97.46
2023-04-18T21:42:19.099Z,97.07
2023-04-18T21:45:05.082Z,96.74
2023-04-18T21:47:50.443Z,96.32
2023-04-18T21:50:35.656Z,95.73
2023-04-18T21:53:20.851Z,96.38
2023-04-18T21:56:07.113Z,96.00
2023-04-18T21:58:52.380Z,96.13
2023-04-18T22:01:37.947Z,96.03
2023-04-18T22:04:23.672Z,95.40
2023-04-18T22:07:09.625Z,95.19
2023-04-18T22:09:54.945Z,94.99
2023-04-18T22:12:40.323Z,94.07
2023-04-18T22:15:25.420Z,93.88
2023-04-18T22:18:10.614Z,93.82
2023-04-18T22:20:56.096Z,93.08
2023-04-18T22:23:41.291Z,92.36
2023-04-18T22:26:26.787Z,92.38
2023-04-18T22:29:12.269Z,92.35
2023-04-18T22:31:57.697Z,92.15
2023-04-18T22:34:43.075Z,92.42
2023-04-18T22:37:28.379Z,92.17
2023-04-18T22:40:13.897Z,91.71
2023-04-18T22:42:59.119Z,91.79
2023-04-18T22:45:45.231Z,91.09
2023-04-18T22:48:30.446Z,90.46
2023-04-18T22:51:16.212Z,90.08
2023-04-18T22:54:01.730Z,90.00
2023-04-18T22:56:50.266Z,89.67
2023-04-18T22:59:35.705Z,89.83
2023-04-18T23:02:21.370Z,89.73
2023-04-18T23:05:06.704Z,89.31
2023-04-18T23:07:52.450Z,90.04
2023-04-18T23:10:38.638Z,90.35
2023-04-18T23:13:24.385Z,90.75
2023-04-18T23:16:09.673Z,91.37
2023-04-18T23:18:55.187Z,91.60
2023-04-18T23:21:40.558Z,91.23
2023-04-18T23:24:26.230Z,90.78
2023-04-18T23:27:11.433Z,91.31
2023-04-18T23:29:56.929Z,90.98
2023-04-18T23:32:42.203Z,90.55
2023-04-18T23:35:27.781Z,90.70
2023-04-18T23:38:13.163Z,90.13
2023-04-18T23:40:58.730Z,90.12
2023-04-18T23:43:44.149Z,89.38
2023-04-18T23:46:29.500Z,89.12
2023-04-18T23:49:16.021Z,88.46
2023-04-18T23:52:01.273Z,88.12
2023-04-18T23:54:46.686Z,87.40
2023-04-18T23:57:32.461Z,86.27
